Aviation Digital Data Service (ADDS)

Output produced by METARs form (1554 UTC 23 November 2014)
found at http://www.aviationweather.gov/adds/metars/
 
KIPT 231454Z 00000KT 9SM SCT075 OVC110 03/M02 A3018 RMK AO2 SLP224 60000 T00281017 51001
KIPT 231354Z 00000KT 6SM HZ OVC100 02/M02 A3018 RMK AO2 SLP223 T00171017
KIPT 231254Z 22003KT 5SM HZ OVC085 01/M02 A3018 RMK AO2 RAE09 SLP225 P0000 T00111017
KIPT 231154Z 00000KT 6SM -RA BR SCT070 OVC090 01/M02 A3018 RMK AO2 RAB52 SLP223 P0000 60000 70002 T00061017 10006 21006 53009
KIPT 231054Z AUTO 00000KT 7SM FEW050 SCT065 OVC085 01/M02 A3017 RMK AO2 RAB33E50 SLP220 P0000 T00061022
KIPT 230954Z AUTO 00000KT 6SM BR BKN050 OVC070 01/M02 A3016 RMK AO2 SLP217 T00061017
KIPT 230854Z AUTO 00000KT 6SM BR BKN055 OVC070 00/M02 A3015 RMK AO2 SLP214 T00001017 58001
KIPT 230754Z AUTO 24003KT 6SM BR BKN060 OVC085 00/M02 A3016 RMK AO2 SLP218 T00001022
KIPT 230654Z AUTO 26003KT 7SM FEW100 00/M03 A3016 RMK AO2 SLP219 T00001028
KIPT 230554Z AUTO 27004KT 7SM BKN095 00/M02 A3015 RMK AO2 SLP216 60000 T00001022 10017 20000 56005
KIPT 230454Z AUTO 00000KT 7SM BKN090 00/M02 A3016 RMK AO2 SLP216 T00001022 400281106
KIPT 230354Z AUTO 25003KT 7SM FEW075 OVC095 01/M02 A3016 RMK AO2 SLP218 T00061022
KIPT 230254Z 31003KT 8SM OVC080 01/M02 A3017 RMK AO2 SLP222 60000 T00061022 56014
KIPT 230154Z 24004KT 10SM OVC060 01/M03 A3018 RMK AO2 SLP226 T00061028
KIPT 230054Z 00000KT 10SM BKN045 OVC055 01/M02 A3019 RMK AO2 RAB21E41 SLP230 P0000 T00061022
KIPT 222354Z 00000KT 10SM OVC044 02/M03 A3021 RMK AO2 RAE12 SLP238 P0001 60002 T00171033 10028 20011 56008
KIPT 222254Z VRB04KT 9SM -RA OVC035 01/M04 A3022 RMK AO2 RAB53 SLP240 P0000 T00111044
KIPT 222154Z VRB03KT 10SM OVC033 02/M06 A3022 RMK AO2 RAE53 SLP241 P0001 T00171056
KIPT 222054Z 09003KT 10SM -RA OVC030 02/M07 A3023 RMK AO2 RAE32B52 SLP245 P0000 60000 T00171072 56018
KIPT 221954Z 12005KT 10SM -RA OVC033 02/M09 A3024 RMK AO2 RAB13 SLP246 P0000 T00221089
KIPT 221854Z 00000KT 10SM OVC033 02/M11 A3026 RMK AO2 RAB1756E20B40E51 SLP253 P0000 T00221106
KIPT 221754Z 00000KT 10SM BKN050 OVC065 02/M11 A3029 RMK AO2 SLP263 T00171106 10022 21106 56041
KIPT 221654Z VRB03KT 10SM SCT080 02/M11 A3032 RMK AO2 SLP274 T00171106
KIPT 221554Z VRB03KT 10SM FEW250 M01/M10 A3037 RMK AO2 SLP293 T10111100
KIPT 221454Z 00000KT 10SM SCT250 M05/M09 A3041 RMK AO2 SLP306 T10501094 56012
KIPT 221354Z 07003KT 10SM SCT250 M07/M12 A3042 RMK AO2 SLP311 T10721117
KIPT 221254Z 00000KT 10SM CLR M09/M12 A3043 RMK AO2 SLP314 T10891122
KIPT 221205Z 00000KT 10SM SCT004 M11/M13 A3045 RMK AO2 T11061133
KIPT 221154Z 00000KT 10SM CLR M10/M13 A3045 RMK AO2 SLP319 T11001133 11072 21106 55006
KIPT 221054Z AUTO 00000KT 10SM CLR M10/M13 A3044 RMK AO2 SLP318 T11001133
KIPT 220954Z AUTO 00000KT 10SM CLR M10/M13 A3046 RMK AO2 SLP323 T11001128
KIPT 220854Z AUTO 00000KT 10SM CLR M09/M13 A3047 RMK AO2 SLP325 T10891128 56005
KIPT 220754Z AUTO 00000KT 10SM CLR M09/M12 A3047 RMK AO2 SLP326 T10891122
KIPT 220654Z AUTO 00000KT 10SM CLR M08/M12 A3048 RMK AO2 SLP328 T10831122
KIPT 220554Z AUTO 00000KT 10SM CLR M07/M12 A3048 RMK AO2 SLP329 T10721117 11022 21072 58002
KIPT 220454Z AUTO 00000KT 10SM CLR M06/M12 A3050 RMK AO2 SLP334 T10611117 400221061